Time;durP1;ratioP1;P1;durP2;ratioP2;P2;SDS_P1;SDS_P2;PMS_P1;PMS_P2;Temp;Humidity;BMP_temperature;BMP_pressure;BME280_temperature;BME280_humidity;BME280_pressure;Samples;Min_cycle;Max_cycle;Signal;HPM_P1;HPM_P2
2022/10/06 00:00:28;;;;;;;9.15;2.08;;;14.70;99.90;;;;;;5067601;28;20035;-64
2022/10/06 00:02:53;;;;;;;6.78;1.67;;;14.70;99.90;;;;;;5064764;28;20494;-66
2022/10/06 00:05:19;;;;;;;5.35;0.90;;;14.60;99.90;;;;;;5068195;28;20028;-65
2022/10/06 00:07:45;;;;;;;0.93;0.60;;;14.50;99.90;;;;;;5068271;28;20037;-65
2022/10/06 00:10:10;;;;;;;1.73;0.82;;;14.40;99.90;;;;;;5055010;28;20040;-66
2022/10/06 00:12:45;;;;;;;2.95;1.80;;;14.30;99.90;;;;;;5066878;28;20107;-66
2022/10/06 00:15:12;;;;;;;3.97;1.13;;;14.20;99.90;;;;;;5066657;28;20432;-66
2022/10/06 00:17:38;;;;;;;1.50;0.95;;;14.10;99.90;;;;;;5068581;28;20017;-65
2022/10/06 00:20:06;;;;;;;2.60;0.98;;;14.10;99.90;;;;;;5067705;28;20095;-64
2022/10/06 00:22:33;;;;;;;1.15;0.88;;;14.00;99.90;;;;;;5068937;28;20025;-65
2022/10/06 00:24:59;;;;;;;2.65;0.90;;;14.00;99.90;;;;;;5063483;28;20060;-64
2022/10/06 00:27:24;;;;;;;0.82;0.70;;;14.00;99.90;;;;;;5069648;28;20043;-63
2022/10/06 00:29:50;;;;;;;2.35;1.00;;;13.90;99.90;;;;;;5067575;28;20032;-66
2022/10/06 00:32:16;;;;;;;2.80;0.75;;;13.90;99.90;;;;;;5067345;28;20028;-63
2022/10/06 00:34:42;;;;;;;3.50;1.10;;;13.80;99.90;;;;;;5067505;28;20497;-63
2022/10/06 00:37:08;;;;;;;2.95;0.82;;;13.80;99.90;;;;;;5067092;28;20033;-65
2022/10/06 00:39:34;;;;;;;3.13;1.25;;;13.80;99.90;;;;;;5065896;28;20474;-62
2022/10/06 00:41:59;;;;;;;1.85;0.70;;;13.80;99.90;;;;;;5066417;28;20036;-65
2022/10/06 00:44:25;;;;;;;4.97;0.80;;;13.80;99.90;;;;;;5047602;28;20048;-66
2022/10/06 00:46:52;;;;;;;2.90;0.80;;;13.80;99.90;;;;;;5062526;28;20025;-65
2022/10/06 00:49:35;;;;;;;3.30;1.25;;;13.70;99.90;;;;;;5069042;28;20025;-65
2022/10/06 00:52:10;;;;;;;5.60;1.10;;;13.70;99.90;;;;;;5064035;28;20066;-64
2022/10/06 01:18:47;;;;;;;4.68;1.23;;;13.60;99.90;;;;;;5121081;28;20038;-69
2022/10/06 01:21:26;;;;;;;2.75;1.27;;;13.50;99.90;;;;;;4758749;22;10657724;-64
2022/10/06 01:23:52;;;;;;;3.55;1.10;;;13.50;99.90;;;;;;5098836;28;20498;-67
2022/10/06 01:26:21;;;;;;;6.80;1.30;;;13.40;99.90;;;;;;5100952;28;20032;-66
2022/10/06 01:28:47;;;;;;;4.38;1.52;;;13.40;99.90;;;;;;5105019;28;20480;-67
2022/10/06 01:31:14;;;;;;;5.72;1.13;;;13.40;99.90;;;;;;5089062;28;20024;-66
2022/10/06 01:33:40;;;;;;;3.55;1.50;;;13.40;99.90;;;;;;5101489;28;20157;-67
2022/10/06 01:36:06;;;;;;;3.83;1.45;;;13.40;99.90;;;;;;5105521;28;20084;-66
2022/10/06 01:38:31;;;;;;;2.40;1.23;;;13.40;99.90;;;;;;5104704;28;20036;-66
2022/10/06 01:40:57;;;;;;;6.18;1.20;;;13.30;99.90;;;;;;5101213;28;20095;-66
2022/10/06 01:43:23;;;;;;;4.85;1.17;;;13.20;99.90;;;;;;5106502;28;20027;-68
2022/10/06 01:45:53;;;;;;;3.20;0.90;;;13.20;99.90;;;;;;5097187;28;20494;-65
2022/10/06 01:48:19;;;;;;;5.22;2.33;;;13.20;99.90;;;;;;5103806;28;20047;-67
2022/10/06 01:50:45;;;;;;;3.03;1.25;;;13.10;99.90;;;;;;5107958;28;20466;-66
2022/10/06 01:53:10;;;;;;;8.68;1.30;;;13.20;99.90;;;;;;5107004;28;20073;-66
2022/10/06 01:55:36;;;;;;;6.30;1.20;;;13.00;99.90;;;;;;5105942;28;20024;-66
2022/10/06 01:58:01;;;;;;;3.70;1.67;;;13.00;99.90;;;;;;5105621;28;20545;-65
2022/10/06 02:00:27;;;;;;;8.32;1.75;;;12.90;99.90;;;;;;5104773;28;20625;-66
2022/10/06 02:02:53;;;;;;;8.60;1.42;;;12.90;99.90;;;;;;5106649;28;20016;-66
2022/10/06 02:05:18;;;;;;;10.57;2.20;;;12.80;99.90;;;;;;5107767;28;20550;-66
2022/10/06 02:07:44;;;;;;;5.43;1.63;;;12.70;99.90;;;;;;5107058;28;20062;-66
2022/10/06 02:10:09;;;;;;;3.80;2.22;;;12.70;99.90;;;;;;5100867;28;20027;-65
2022/10/06 02:12:35;;;;;;;12.38;2.15;;;12.60;99.90;;;;;;5092590;28;20517;-66
2022/10/06 02:15:01;;;;;;;5.00;1.45;;;12.50;99.90;;;;;;5091700;28;20065;-67
2022/10/06 02:17:27;;;;;;;5.25;1.23;;;12.50;99.90;;;;;;5093107;28;20115;-66
2022/10/06 02:19:52;;;;;;;5.47;1.50;;;12.50;99.90;;;;;;5090221;28;20102;-68
2022/10/06 02:22:18;;;;;;;4.95;1.40;;;12.40;99.90;;;;;;5098162;28;20036;-65
2022/10/06 02:24:44;;;;;;;6.05;1.52;;;12.40;99.90;;;;;;5093782;28;20020;-65
2022/10/06 02:27:09;;;;;;;5.72;1.55;;;12.30;99.90;;;;;;5091109;28;20490;-66
2022/10/06 02:29:35;;;;;;;4.68;1.48;;;12.30;99.90;;;;;;5079890;28;20030;-66
2022/10/06 02:32:00;;;;;;;5.80;1.70;;;12.20;99.90;;;;;;5095325;28;20027;-66
2022/10/06 02:34:26;;;;;;;4.15;1.35;;;12.20;99.90;;;;;;5093637;28;20036;-67
2022/10/06 02:36:52;;;;;;;4.07;1.30;;;12.20;99.90;;;;;;5092973;28;20023;-66
2022/10/06 02:39:18;;;;;;;8.27;1.50;;;12.10;99.90;;;;;;5092109;28;20034;-66
2022/10/06 02:41:44;;;;;;;7.18;1.40;;;12.10;99.90;;;;;;5093892;28;20020;-67
2022/10/06 02:44:09;;;;;;;6.65;1.35;;;12.10;99.90;;;;;;5093240;28;20095;-66
2022/10/06 02:46:35;;;;;;;8.27;2.50;;;12.10;99.90;;;;;;5093973;28;20012;-66
2022/10/06 02:49:01;;;;;;;5.00;1.20;;;12.00;99.90;;;;;;5095990;28;20106;-67
2022/10/06 02:51:26;;;;;;;3.95;1.60;;;12.00;99.90;;;;;;5100290;28;20103;-67
2022/10/06 02:53:53;;;;;;;6.63;1.92;;;11.90;99.90;;;;;;5092321;28;20082;-65
2022/10/06 02:56:21;;;;;;;6.72;1.98;;;11.90;99.90;;;;;;5094008;28;20035;-67
2022/10/06 02:58:48;;;;;;;9.82;2.05;;;11.90;99.90;;;;;;5100592;28;20024;-66
2022/10/06 03:01:15;;;;;;;8.32;1.88;;;11.90;99.90;;;;;;5088354;28;20028;-66
2022/10/06 03:03:40;;;;;;;11.68;2.10;;;11.80;99.90;;;;;;5091328;28;20020;-66
2022/10/06 03:06:20;;;;;;;4.97;1.23;;;11.80;99.90;;;;;;5093570;28;20023;-66
2022/10/06 03:08:50;;;;;;;8.20;1.90;;;11.80;99.90;;;;;;5095998;28;20020;-69
2022/10/06 03:11:20;;;;;;;7.97;1.30;;;11.80;99.90;;;;;;5089021;28;20020;-68
2022/10/06 03:13:48;;;;;;;6.20;1.48;;;11.70;99.90;;;;;;5092580;28;20031;-66
2022/10/06 03:16:15;;;;;;;7.28;1.63;;;11.70;99.90;;;;;;5093297;28;20020;-68
2022/10/06 03:18:45;;;;;;;10.25;1.70;;;11.70;99.90;;;;;;5092477;28;20439;-66
2022/10/06 03:21:13;;;;;;;3.47;1.58;;;11.70;99.90;;;;;;5079323;28;20024;-66
2022/10/06 03:23:39;;;;;;;12.27;1.77;;;11.60;99.90;;;;;;5090275;28;20084;-66
2022/10/06 03:26:05;;;;;;;11.57;2.47;;;11.50;99.90;;;;;;5092752;28;20469;-66
2022/10/06 03:28:30;;;;;;;12.32;2.33;;;11.40;99.90;;;;;;5090590;28;20035;-66
2022/10/06 03:31:01;;;;;;;10.68;2.22;;;11.40;99.90;;;;;;5092045;28;20016;-65
2022/10/06 03:33:27;;;;;;;15.13;1.83;;;11.40;99.90;;;;;;5087851;28;20093;-66
2022/10/06 03:36:01;;;;;;;7.35;1.85;;;11.30;99.90;;;;;;5092672;28;20063;-67
2022/10/06 03:38:27;;;;;;;11.13;3.00;;;11.30;99.90;;;;;;5091370;28;20020;-66
2022/10/06 03:41:00;;;;;;;8.65;1.50;;;11.20;99.90;;;;;;5091032;28;20035;-66
2022/10/06 03:43:25;;;;;;;9.70;1.88;;;11.20;99.90;;;;;;5088365;28;20468;-66
2022/10/06 03:45:59;;;;;;;15.30;2.63;;;11.10;99.90;;;;;;5092127;28;20099;-68
2022/10/06 03:48:26;;;;;;;9.40;1.85;;;11.00;99.90;;;;;;5090488;28;20028;-65
2022/10/06 03:50:56;;;;;;;12.80;1.80;;;11.00;99.90;;;;;;5091834;28;20038;-67
2022/10/06 03:53:26;;;;;;;5.95;1.40;;;10.90;99.90;;;;;;5089252;28;20038;-71
2022/10/06 03:56:07;;;;;;;9.07;2.70;;;10.90;99.90;;;;;;5091450;28;20016;-65
2022/10/06 03:58:35;;;;;;;9.48;1.83;;;10.90;99.90;;;;;;5090501;28;20509;-65
2022/10/06 04:01:17;;;;;;;7.00;1.60;;;10.90;99.90;;;;;;5090939;28;20467;-66
2022/10/06 04:03:43;;;;;;;12.68;1.73;;;10.80;99.90;;;;;;5089504;28;20073;-66
2022/10/06 04:06:16;;;;;;;14.10;1.42;;;10.80;99.90;;;;;;5087089;28;20383;-66
2022/10/06 04:08:43;;;;;;;7.65;2.00;;;10.70;99.90;;;;;;5082853;28;20032;-66
2022/10/06 04:11:14;;;;;;;8.70;1.40;;;10.60;99.90;;;;;;5090851;28;20016;-65
2022/10/06 04:13:41;;;;;;;12.93;1.80;;;10.60;99.90;;;;;;5090277;28;20016;-67
2022/10/06 04:16:16;;;;;;;14.80;1.55;;;10.60;99.90;;;;;;5086412;28;20546;-66
2022/10/06 04:18:43;;;;;;;6.68;1.45;;;10.60;99.90;;;;;;5087921;28;20020;-66
2022/10/06 04:21:11;;;;;;;15.27;1.60;;;10.50;99.90;;;;;;5090716;28;20471;-67
2022/10/06 04:23:37;;;;;;;9.15;1.85;;;10.50;99.90;;;;;;5088495;28;20113;-65
2022/10/06 04:26:08;;;;;;;12.70;2.58;;;10.50;99.90;;;;;;5091673;28;20201;-65
2022/10/06 04:28:37;;;;;;;18.08;2.05;;;10.40;99.90;;;;;;5089713;28;20016;-66
2022/10/06 04:31:04;;;;;;;8.48;2.38;;;10.50;99.90;;;;;;5090313;28;20494;-66
2022/10/06 04:33:33;;;;;;;11.90;1.45;;;10.50;99.90;;;;;;5088606;28;20032;-65
2022/10/06 04:36:01;;;;;;;7.80;2.00;;;10.50;99.90;;;;;;5087676;28;20099;-65
2022/10/06 04:38:28;;;;;;;14.18;1.52;;;10.40;99.90;;;;;;5090343;28;20020;-65
2022/10/06 04:40:54;;;;;;;9.57;2.20;;;10.40;99.90;;;;;;5085087;28;20081;-64
2022/10/06 04:43:20;;;;;;;19.63;2.03;;;10.40;99.90;;;;;;5089659;28;20008;-68
2022/10/06 04:45:46;;;;;;;10.35;2.33;;;10.50;99.90;;;;;;5091439;28;20514;-65
2022/10/06 04:48:12;;;;;;;8.73;1.52;;;10.50;99.90;;;;;;5089114;28;20069;-66
2022/10/06 04:50:38;;;;;;;12.05;3.33;;;10.50;99.90;;;;;;5091151;28;20024;-66
2022/10/06 04:53:03;;;;;;;7.18;1.33;;;10.50;99.90;;;;;;5086906;28;20027;-66
2022/10/06 04:55:29;;;;;;;18.58;3.70;;;10.50;99.90;;;;;;5086258;28;20037;-67
2022/10/06 04:57:54;;;;;;;10.23;1.83;;;10.40;99.90;;;;;;5090251;28;20023;-66
2022/10/06 05:00:24;;;;;;;12.50;1.90;;;10.30;99.90;;;;;;5089316;28;20661;-66
2022/10/06 05:02:54;;;;;;;8.68;1.60;;;10.20;99.90;;;;;;5090179;28;20016;-65
2022/10/06 05:05:20;;;;;;;16.52;1.80;;;10.20;99.90;;;;;;5089858;28;20058;-66
2022/10/06 05:07:46;;;;;;;11.70;1.90;;;10.20;99.90;;;;;;5089175;28;20426;-64
2022/10/06 05:10:11;;;;;;;15.85;3.22;;;10.10;99.90;;;;;;5087896;28;20113;-66
2022/10/06 05:12:37;;;;;;;11.27;1.77;;;10.00;99.90;;;;;;5090935;28;20027;-65
2022/10/06 05:15:03;;;;;;;7.65;1.50;;;10.00;99.90;;;;;;5090506;28;20062;-65
2022/10/06 05:17:29;;;;;;;8.02;1.50;;;9.90;99.90;;;;;;5091011;28;20059;-66
2022/10/06 05:19:54;;;;;;;9.18;2.28;;;9.80;99.90;;;;;;5088711;28;20863;-67
2022/10/06 05:22:20;;;;;;;8.77;2.45;;;9.70;99.90;;;;;;5095076;28;20039;-67
2022/10/06 05:24:45;;;;;;;9.32;3.28;;;9.70;99.90;;;;;;5103059;28;20023;-65
2022/10/06 05:27:12;;;;;;;18.08;3.10;;;9.60;99.90;;;;;;5102444;28;20105;-65
2022/10/06 05:29:38;;;;;;;7.28;2.78;;;9.60;99.90;;;;;;5082113;28;20490;-66
2022/10/06 05:32:03;;;;;;;16.25;4.07;;;9.50;99.90;;;;;;5092247;28;20043;-64
2022/10/06 05:34:29;;;;;;;8.70;3.28;;;9.40;99.90;;;;;;5091438;28;20032;-65
2022/10/06 05:36:55;;;;;;;14.93;3.20;;;9.40;99.90;;;;;;5098057;28;20032;-67
2022/10/06 05:39:20;;;;;;;18.83;3.70;;;9.40;99.90;;;;;;5087866;28;20028;-66
2022/10/06 05:41:46;;;;;;;16.10;3.58;;;9.30;99.90;;;;;;5093084;28;20069;-65
2022/10/06 05:44:12;;;;;;;17.02;4.65;;;9.30;99.90;;;;;;5084262;28;20048;-65
2022/10/06 05:46:37;;;;;;;26.60;4.57;;;9.30;99.90;;;;;;5100423;28;20029;-63
2022/10/06 05:49:10;;;;;;;15.70;4.28;;;9.30;99.90;;;;;;5096938;28;20394;-65
2022/10/06 05:51:37;;;;;;;19.38;4.15;;;9.30;99.90;;;;;;5095920;28;20023;-66
2022/10/06 05:54:03;;;;;;;14.05;4.32;;;9.30;99.90;;;;;;5094866;28;20024;-63
2022/10/06 05:56:30;;;;;;;21.17;5.18;;;9.30;99.90;;;;;;5097471;28;20390;-65
2022/10/06 05:58:57;;;;;;;18.42;4.22;;;9.30;99.90;;;;;;5092798;28;20495;-65
2022/10/06 06:01:24;;;;;;;15.15;3.65;;;9.30;99.90;;;;;;5091450;28;20115;-67
2022/10/06 06:03:52;;;;;;;21.73;5.40;;;9.30;99.90;;;;;;5094014;28;20501;-65
2022/10/06 06:06:20;;;;;;;14.75;4.32;;;9.30;99.90;;;;;;5094781;28;20554;-65
2022/10/06 06:08:47;;;;;;;19.77;4.28;;;9.30;99.90;;;;;;5102811;28;20107;-65
2022/10/06 06:11:13;;;;;;;13.65;4.20;;;9.40;99.90;;;;;;5101285;28;20402;-65
2022/10/06 06:13:39;;;;;;;15.20;5.03;;;9.40;99.90;;;;;;5095795;28;20493;-65
2022/10/06 06:16:11;;;;;;;15.45;3.72;;;9.40;99.90;;;;;;5097535;28;20032;-65
2022/10/06 06:18:36;;;;;;;10.50;3.92;;;9.40;99.90;;;;;;5092788;28;20016;-65
2022/10/06 06:21:05;;;;;;;15.13;3.90;;;9.50;99.90;;;;;;5101134;28;20490;-66
2022/10/06 06:23:34;;;;;;;14.05;4.57;;;9.50;99.90;;;;;;5045340;28;20074;-66
2022/10/06 06:26:05;;;;;;;14.52;3.42;;;9.60;99.90;;;;;;5040896;28;20017;-65
2022/10/06 06:28:32;;;;;;;19.52;3.90;;;9.60;99.90;;;;;;5042406;28;20029;-66
2022/10/06 06:31:01;;;;;;;13.45;3.53;;;9.70;99.90;;;;;;5041092;28;20405;-67
2022/10/06 06:33:27;;;;;;;10.27;2.80;;;9.80;99.90;;;;;;5045843;28;20079;-64
2022/10/06 06:35:52;;;;;;;11.18;2.20;;;9.90;99.90;;;;;;5045133;28;20021;-67
2022/10/06 06:38:18;;;;;;;14.40;2.92;;;10.00;99.90;;;;;;5047128;28;20021;-67
2022/10/06 06:40:43;;;;;;;9.77;1.83;;;10.20;99.90;;;;;;5050819;28;20094;-64
2022/10/06 06:43:11;;;;;;;11.60;1.77;;;10.30;99.90;;;;;;5046625;28;20017;-65
2022/10/06 06:45:37;;;;;;;13.05;1.92;;;10.40;99.90;;;;;;5043340;28;20112;-66
2022/10/06 06:48:04;;;;;;;13.80;2.30;;;10.50;99.90;;;;;;5041152;28;20041;-66
2022/10/06 06:50:30;;;;;;;14.35;2.17;;;10.70;99.90;;;;;;5048494;28;20024;-67
2022/10/06 06:52:56;;;;;;;12.02;2.08;;;10.90;99.90;;;;;;5046434;28;20544;-65
2022/10/06 06:55:22;;;;;;;10.38;2.15;;;11.10;99.90;;;;;;5043669;28;20029;-64
2022/10/06 06:57:48;;;;;;;13.25;1.83;;;11.20;99.90;;;;;;5041915;28;20029;-66
2022/10/06 07:00:15;;;;;;;16.67;2.17;;;11.10;99.90;;;;;;5044061;28;20483;-66
2022/10/06 07:02:41;;;;;;;12.55;2.88;;;11.10;99.90;;;;;;5043598;28;20380;-65
2022/10/06 07:05:08;;;;;;;8.68;1.70;;;11.00;99.90;;;;;;5039466;28;20044;-67
2022/10/06 07:07:34;;;;;;;14.45;3.25;;;11.00;99.90;;;;;;5043325;28;20014;-66
2022/10/06 07:10:00;;;;;;;19.55;2.72;;;11.00;99.90;;;;;;5050445;28;20025;-66
2022/10/06 07:12:26;;;;;;;8.82;2.15;;;11.00;99.90;;;;;;5049868;28;20079;-64
2022/10/06 07:25:51;;;;;;;12.90;2.33;;;11.10;99.90;;;;;;5047303;28;20040;-68
2022/10/06 07:28:17;;;;;;;13.75;3.28;;;11.10;99.90;;;;;;5043076;28;20052;-65
2022/10/06 07:30:43;;;;;;;15.50;2.17;;;11.20;99.90;;;;;;5065518;22;20040;-69
2022/10/06 07:33:09;;;;;;;14.88;2.40;;;11.20;99.90;;;;;;5029242;28;20028;-69
2022/10/06 07:35:37;;;;;;;9.95;1.58;;;11.30;99.90;;;;;;5053804;28;20013;-67
2022/10/06 07:38:06;;;;;;;14.40;2.70;;;11.30;99.90;;;;;;5049754;28;20059;-69
2022/10/06 07:40:33;;;;;;;12.35;3.53;;;11.40;99.90;;;;;;5061025;28;20151;-67
2022/10/06 07:42:59;;;;;;;11.32;2.28;;;11.50;99.90;;;;;;5047184;28;20560;-70
2022/10/06 07:45:39;;;;;;;23.40;2.33;;;11.60;99.90;;;;;;5038898;28;20030;-68
2022/10/06 07:48:19;;;;;;;17.02;2.92;;;11.70;99.90;;;;;;5031303;28;20021;-67
2022/10/06 07:50:49;;;;;;;14.82;2.40;;;11.70;99.90;;;;;;5038286;28;20040;-68
2022/10/06 07:53:16;;;;;;;20.33;3.33;;;11.70;99.90;;;;;;5036010;28;20476;-67
2022/10/06 07:55:45;;;;;;;12.98;2.90;;;11.80;99.90;;;;;;5033320;28;20029;-69
2022/10/06 07:58:18;;;;;;;13.65;2.00;;;11.90;99.90;;;;;;5037353;28;20056;-70
2022/10/06 08:00:45;;;;;;;7.68;2.30;;;12.00;99.90;;;;;;5041168;28;20048;-69
2022/10/06 08:03:16;;;;;;;14.10;2.35;;;12.10;99.90;;;;;;5039969;28;20384;-71
2022/10/06 08:05:43;;;;;;;10.38;2.38;;;12.10;99.90;;;;;;5036133;28;20029;-67
2022/10/06 08:08:09;;;;;;;12.65;2.83;;;12.20;99.90;;;;;;5037279;28;20025;-68
2022/10/06 08:10:34;;;;;;;14.05;2.72;;;12.30;99.90;;;;;;5024525;28;20037;-66
2022/10/06 08:13:04;;;;;;;19.73;3.05;;;12.40;99.90;;;;;;5021940;28;20025;-67
2022/10/06 08:15:29;;;;;;;9.98;2.25;;;12.50;99.90;;;;;;5044227;28;20029;-67
2022/10/06 08:17:58;;;;;;;13.88;3.28;;;12.60;99.90;;;;;;5046058;28;20027;-68
2022/10/06 08:20:26;;;;;;;11.95;2.63;;;12.70;99.90;;;;;;5023728;28;20082;-67
2022/10/06 08:22:51;;;;;;;12.35;2.72;;;12.70;99.90;;;;;;5012967;28;20040;-68
2022/10/06 08:25:17;;;;;;;20.77;3.50;;;12.80;99.90;;;;;;5078027;28;20032;-68
2022/10/06 08:27:43;;;;;;;22.27;3.95;;;12.90;99.90;;;;;;5066243;28;20020;-67
2022/10/06 08:30:10;;;;;;;9.95;2.72;;;13.00;99.90;;;;;;5073331;28;20028;-69
2022/10/06 08:32:36;;;;;;;17.95;3.90;;;13.00;99.90;;;;;;5063886;28;20031;-69
2022/10/06 08:35:02;;;;;;;14.65;3.42;;;13.10;99.90;;;;;;5040635;28;20089;-67
2022/10/06 08:37:28;;;;;;;14.93;2.95;;;13.10;99.90;;;;;;5052675;28;20056;-68
2022/10/06 08:39:54;;;;;;;22.58;3.95;;;13.30;99.90;;;;;;5057653;28;20055;-67
2022/10/06 08:42:41;;;;;;;17.40;3.75;;;13.30;99.90;;;;;;5063509;28;20407;-69
2022/10/06 08:45:34;;;;;;;10.27;3.05;;;13.40;99.90;;;;;;5052372;28;20024;-71
2022/10/06 08:48:12;;;;;;;13.15;3.83;;;13.40;99.90;;;;;;5040716;28;20395;-70
2022/10/06 08:51:25;;;;;;;25.42;4.07;;;13.50;99.90;;;;;;5050631;28;20028;-70
2022/10/06 08:54:12;;;;;;;14.82;3.28;;;13.70;99.90;;;;;;5022540;28;20021;-70
2022/10/06 08:56:57;;;;;;;16.20;2.97;;;13.80;99.90;;;;;;5019206;28;20025;-71
2022/10/06 08:59:23;;;;;;;14.18;2.88;;;14.00;99.90;;;;;;5058467;28;20301;-69
2022/10/06 09:01:53;;;;;;;16.55;2.88;;;14.30;99.90;;;;;;5065528;28;20070;-71
2022/10/06 09:04:25;;;;;;;11.63;2.70;;;15.10;99.90;;;;;;5053673;28;20027;-68
2022/10/06 09:07:05;;;;;;;16.20;3.28;;;15.50;99.90;;;;;;5056754;28;20157;-68
2022/10/06 09:09:39;;;;;;;13.15;1.98;;;15.70;99.90;;;;;;5062111;28;20383;-67
2022/10/06 09:12:19;;;;;;;10.25;2.63;;;16.40;99.90;;;;;;5074162;28;20024;-68
2022/10/06 09:14:53;;;;;;;9.38;2.30;;;17.10;99.90;;;;;;5044316;28;20486;-69
2022/10/06 09:17:31;;;;;;;10.43;2.53;;;17.30;99.60;;;;;;5073045;28;20128;-69
2022/10/06 09:20:08;;;;;;;10.98;3.17;;;17.80;99.90;;;;;;5047405;28;20558;-69
2022/10/06 09:22:34;;;;;;;12.50;2.53;;;17.90;98.20;;;;;;5075023;28;20100;-70
2022/10/06 09:25:21;;;;;;;10.18;2.60;;;18.00;97.70;;;;;;5046061;28;20041;-67
2022/10/06 09:27:51;;;;;;;13.43;2.50;;;18.30;98.60;;;;;;5067826;28;20086;-69
2022/10/06 09:30:18;;;;;;;8.13;2.30;;;18.70;97.30;;;;;;5080808;28;20036;-69
2022/10/06 09:32:47;;;;;;;16.65;3.25;;;19.00;96.40;;;;;;5078485;28;20034;-68
2022/10/06 09:35:21;;;;;;;7.13;2.10;;;19.20;96.20;;;;;;5069233;28;20045;-70
2022/10/06 09:38:03;;;;;;;11.30;1.85;;;19.20;95.40;;;;;;5075809;28;20109;-68
2022/10/06 09:40:50;;;;;;;8.73;2.13;;;19.10;95.30;;;;;;5071257;28;20032;-68
2022/10/06 09:43:25;;;;;;;11.27;2.00;;;19.10;93.90;;;;;;5071690;28;20017;-68
2022/10/06 09:45:53;;;;;;;10.18;2.50;;;18.40;93.60;;;;;;5067545;28;20024;-68
2022/10/06 09:48:26;;;;;;;15.27;2.55;;;18.40;95.00;;;;;;5070707;28;20048;-69
2022/10/06 09:51:13;;;;;;;10.55;3.08;;;18.70;95.40;;;;;;5072657;28;20108;-67
2022/10/06 09:53:43;;;;;;;12.95;3.13;;;18.60;94.60;;;;;;5068009;28;20032;-68
2022/10/06 09:56:18;;;;;;;13.77;2.80;;;18.80;94.80;;;;;;5070353;28;20035;-68
2022/10/06 09:58:57;;;;;;;12.10;2.50;;;18.80;94.30;;;;;;5064349;28;20115;-69
2022/10/06 10:01:26;;;;;;;10.70;2.35;;;18.40;94.50;;;;;;5066659;28;20032;-68
2022/10/06 10:04:06;;;;;;;11.02;2.17;;;18.10;94.80;;;;;;5069350;28;20024;-68
2022/10/06 10:06:33;;;;;;;12.25;2.47;;;17.80;94.10;;;;;;5084335;28;20036;-68
2022/10/06 10:09:28;;;;;;;9.95;1.83;;;17.50;94.20;;;;;;5076229;28;20107;-68
2022/10/06 10:12:23;;;;;;;14.95;2.15;;;17.40;94.90;;;;;;5040967;28;20044;-69
2022/10/06 10:14:48;;;;;;;;;;;17.20;94.90;;;;;;5043844;28;20028;-69
2022/10/06 10:17:31;;;;;;;19.60;3.67;;;17.20;95.10;;;;;;5065789;28;19908;-68
2022/10/06 10:19:57;;;;;;;12.30;2.13;;;17.30;94.60;;;;;;5066756;28;20062;-68
2022/10/06 10:22:39;;;;;;;9.73;1.63;;;17.20;94.80;;;;;;5064713;28;20032;-68
2022/10/06 10:25:15;;;;;;;14.18;2.55;;;17.10;93.10;;;;;;5064808;28;20506;-69
2022/10/06 10:27:58;;;;;;;15.48;1.92;;;17.30;94.40;;;;;;5050131;28;20547;-69
2022/10/06 10:30:23;;;;;;;9.73;2.13;;;17.10;93.80;;;;;;5066317;28;20024;-69
2022/10/06 10:33:04;;;;;;;7.28;2.55;;;17.10;94.30;;;;;;5066405;28;20081;-70
2022/10/06 10:35:36;;;;;;;9.25;2.42;;;17.20;93.60;;;;;;5057339;28;20074;-69
2022/10/06 10:38:10;;;;;;;9.63;2.03;;;17.10;93.60;;;;;;5070141;28;20127;-70
2022/10/06 10:40:50;;;;;;;8.85;2.35;;;17.10;93.00;;;;;;5067449;28;20059;-69
2022/10/06 10:43:36;;;;;;;7.50;1.90;;;17.20;93.30;;;;;;5058882;28;20021;-68
2022/10/06 10:46:05;;;;;;;9.02;2.25;;;17.10;93.90;;;;;;5059932;28;20025;-68
2022/10/06 10:48:50;;;;;;;11.15;2.58;;;17.20;93.50;;;;;;5061873;28;20033;-68
2022/10/06 10:51:24;;;;;;;9.77;2.60;;;17.30;93.10;;;;;;5072032;28;20016;-68
2022/10/06 10:54:01;;;;;;;8.32;2.53;;;17.30;93.00;;;;;;5060193;28;20027;-67
2022/10/06 10:56:30;;;;;;;12.82;2.47;;;17.40;93.40;;;;;;5058480;28;20039;-68
2022/10/06 10:59:20;;;;;;;13.00;3.03;;;17.40;93.00;;;;;;5068120;28;20028;-68
2022/10/06 11:02:03;;;;;;;9.55;2.33;;;17.50;92.30;;;;;;5069120;28;20462;-70
2022/10/06 11:04:29;;;;;;;7.05;1.63;;;17.50;92.00;;;;;;5055887;28;20056;-68
2022/10/06 11:07:05;;;;;;;10.90;2.10;;;17.40;91.90;;;;;;5069526;28;20040;-70
2022/10/06 11:09:46;;;;;;;6.88;1.98;;;17.40;92.10;;;;;;5059195;28;20024;-68
2022/10/06 11:12:47;;;;;;;11.30;2.65;;;17.30;92.10;;;;;;5050933;28;20029;-68
2022/10/06 11:15:30;;;;;;;6.75;1.77;;;17.20;92.40;;;;;;5019379;28;20065;-69
2022/10/06 11:18:05;;;;;;;9.18;2.33;;;17.10;91.30;;;;;;5060183;28;20029;-68
2022/10/06 11:20:43;;;;;;;16.58;2.08;;;17.10;91.90;;;;;;5074168;28;20032;-68
2022/10/06 11:23:24;;;;;;;10.00;2.35;;;17.10;92.00;;;;;;5082650;28;20016;-70
2022/10/06 11:26:12;;;;;;;6.68;1.67;;;17.10;91.70;;;;;;5066806;28;20037;-67
2022/10/06 11:28:49;;;;;;;8.35;1.85;;;17.10;92.00;;;;;;5064751;28;20021;-69
2022/10/06 11:31:42;;;;;;;5.93;1.80;;;17.10;92.40;;;;;;5072092;28;20024;-69
2022/10/06 11:34:09;;;;;;;9.60;2.38;;;17.20;92.20;;;;;;5058716;28;20434;-67
2022/10/06 11:36:53;;;;;;;3.08;1.30;;;17.20;91.10;;;;;;5068311;28;20032;-68
2022/10/06 11:39:22;;;;;;;8.00;2.22;;;17.20;91.40;;;;;;5047922;28;20395;-68
2022/10/06 11:42:18;;;;;;;11.55;2.10;;;17.10;92.00;;;;;;5067911;28;20024;-68
2022/10/06 11:44:50;;;;;;;5.05;1.85;;;17.00;91.50;;;;;;5067940;28;20028;-69
2022/10/06 11:47:20;;;;;;;8.40;2.22;;;17.00;92.40;;;;;;5070793;28;20107;-68
2022/10/06 11:49:54;;;;;;;7.82;1.92;;;17.10;91.30;;;;;;5090766;28;20036;-67
2022/10/06 11:52:20;;;;;;;8.73;1.92;;;17.00;91.30;;;;;;5065283;28;20552;-69
2022/10/06 11:54:53;;;;;;;10.23;2.63;;;16.90;92.30;;;;;;5067756;28;20099;-67
2022/10/06 11:57:22;;;;;;;6.65;1.83;;;16.90;91.30;;;;;;5056660;28;20114;-69
2022/10/06 11:59:51;;;;;;;6.32;1.80;;;17.00;91.10;;;;;;5067387;28;20052;-69
2022/10/06 12:02:43;;;;;;;7.40;1.67;;;17.00;90.70;;;;;;5071486;28;20033;-69
2022/10/06 12:05:09;;;;;;;8.90;1.42;;;17.00;91.40;;;;;;5065022;28;20032;-70
2022/10/06 12:07:53;;;;;;;6.88;1.27;;;17.00;90.20;;;;;;5064872;28;20025;-69
2022/10/06 12:10:28;;;;;;;5.57;1.50;;;16.80;90.10;;;;;;5074621;28;20024;-68
2022/10/06 12:13:12;;;;;;;7.32;1.63;;;16.90;90.50;;;;;;5072741;28;20097;-68
2022/10/06 12:15:38;;;;;;;;;;;16.80;91.60;;;;;;5060221;28;20036;-70
2022/10/06 12:18:15;;;;;;;4.63;1.60;;;16.90;90.70;;;;;;5065351;28;19904;-69
2022/10/06 12:20:56;;;;;;;13.32;2.63;;;16.80;90.30;;;;;;5069687;28;20031;-68
2022/10/06 12:23:47;;;;;;;10.77;1.67;;;16.70;90.80;;;;;;5068281;28;20051;-67
2022/10/06 12:26:47;;;;;;;7.03;2.00;;;16.80;91.60;;;;;;5043807;28;20403;-68
2022/10/06 12:29:29;;;;;;;5.32;1.52;;;16.70;91.20;;;;;;5042956;28;20108;-68
2022/10/06 12:32:20;;;;;;;7.78;2.67;;;16.70;91.80;;;;;;5049049;28;20037;-70
2022/10/06 12:34:57;;;;;;;7.18;2.05;;;16.70;91.70;;;;;;5044400;28;20032;-68
2022/10/06 12:37:28;;;;;;;10.13;1.92;;;16.70;91.40;;;;;;5042498;28;20024;-68
2022/10/06 12:40:32;;;;;;;8.30;1.75;;;16.70;91.50;;;;;;5039952;28;20029;-71
2022/10/06 12:43:10;;;;;;;7.30;1.58;;;16.70;91.40;;;;;;5033402;28;20028;-69
2022/10/06 12:45:39;;;;;;;12.55;2.50;;;16.70;91.10;;;;;;5037261;28;20074;-68
2022/10/06 12:48:12;;;;;;;12.30;2.58;;;16.70;90.30;;;;;;5042045;28;20072;-68
2022/10/06 12:50:41;;;;;;;9.38;2.03;;;16.60;90.90;;;;;;5038598;28;20021;-70
2022/10/06 12:53:15;;;;;;;9.23;1.83;;;16.60;90.70;;;;;;5027559;28;20491;-67
2022/10/06 12:55:47;;;;;;;5.00;1.70;;;16.60;90.90;;;;;;5048260;28;20049;-68
2022/10/06 12:58:18;;;;;;;7.78;1.60;;;16.60;91.20;;;;;;5043609;28;20024;-68
2022/10/06 13:00:44;;;;;;;9.23;2.83;;;16.60;90.70;;;;;;5041798;28;20028;-68
2022/10/06 13:03:23;;;;;;;3.33;1.50;;;16.60;91.20;;;;;;5046116;28;20077;-70
2022/10/06 13:05:59;;;;;;;4.20;1.52;;;16.60;91.20;;;;;;5043460;28;20021;-68
2022/10/06 13:08:26;;;;;;;6.05;1.10;;;16.60;91.70;;;;;;5042191;28;20309;-68
2022/10/06 13:11:19;;;;;;;5.13;1.95;;;16.50;90.50;;;;;;5041964;28;20033;-67
2022/10/06 13:13:59;;;;;;;16.40;2.78;;;16.50;91.20;;;;;;5045132;28;20491;-69
2022/10/06 13:16:28;;;;;;;6.00;1.67;;;16.50;92.20;;;;;;5044984;28;20056;-68
2022/10/06 13:18:57;;;;;;;6.75;2.83;;;16.50;91.40;;;;;;5040014;28;20032;-68
2022/10/06 13:21:22;;;;;;;16.85;2.20;;;16.50;90.60;;;;;;5046208;28;20029;-68
2022/10/06 13:23:49;;;;;;;5.90;1.60;;;16.50;90.80;;;;;;5049100;28;20036;-68
2022/10/06 13:26:20;;;;;;;6.60;1.88;;;16.50;90.20;;;;;;5033031;28;20041;-68
2022/10/06 13:28:57;;;;;;;11.63;2.10;;;16.50;90.20;;;;;;5045066;28;20021;-67
2022/10/06 13:31:32;;;;;;;5.40;1.48;;;16.50;89.00;;;;;;5044987;28;20100;-68
2022/10/06 13:34:11;;;;;;;10.82;2.38;;;16.50;90.20;;;;;;5047177;28;20045;-68
2022/10/06 13:36:40;;;;;;;7.47;2.03;;;16.50;90.00;;;;;;5047346;28;20025;-68